Time;durP1;ratioP1;P1;durP2;ratioP2;P2;SDS_P1;SDS_P2;PMS_P1;PMS_P2;Temp;Humidity;BMP_temperature;BMP_pressure;BME280_temperature;BME280_humidity;BME280_pressure;Samples;Min_cycle;Max_cycle;Signal;HPM_P1;HPM_P2
2022/06/02 00:01:58;;;;;;;4.17;2.83;;;13.70;99.90;;;;;;5036497;28;20468;-50
2022/06/02 00:04:32;;;;;;;3.70;3.10;;;13.70;99.90;;;;;;5036427;28;20488;-49
2022/06/02 00:07:05;;;;;;;3.87;3.20;;;13.60;99.90;;;;;;5036504;28;20450;-45
2022/06/02 00:09:51;;;;;;;4.03;3.60;;;13.60;99.90;;;;;;5036299;28;20484;-48
2022/06/02 00:12:27;;;;;;;3.20;2.90;;;13.60;99.90;;;;;;5036608;28;20449;-43
2022/06/02 00:15:03;;;;;;;3.50;2.97;;;13.60;99.90;;;;;;5036509;28;20452;-50
2022/06/02 00:17:39;;;;;;;3.37;3.07;;;13.70;99.90;;;;;;5036039;28;20473;-48
2022/06/02 00:20:10;;;;;;;3.50;3.20;;;13.70;99.90;;;;;;5036419;28;20428;-50
2022/06/02 00:22:47;;;;;;;3.10;2.80;;;13.70;99.90;;;;;;5036365;28;20500;-47
2022/06/02 00:25:27;;;;;;;4.03;3.63;;;13.70;99.90;;;;;;5035711;28;20511;-44
2022/06/02 00:28:02;;;;;;;6.37;3.10;;;13.60;99.90;;;;;;5035857;28;20472;-47
2022/06/02 00:30:35;;;;;;;4.13;3.50;;;13.60;99.90;;;;;;5035900;28;20497;-51
2022/06/02 00:33:13;;;;;;;3.37;3.07;;;13.60;99.90;;;;;;5035812;28;20456;-44
2022/06/02 00:35:45;;;;;;;3.50;2.87;;;13.60;99.90;;;;;;5036111;28;20488;-46
2022/06/02 00:38:19;;;;;;;3.23;2.93;;;13.60;99.90;;;;;;5036001;28;20449;-44
2022/06/02 00:40:48;;;;;;;3.77;2.90;;;13.60;99.90;;;;;;5035080;28;20469;-41
2022/06/02 00:43:33;;;;;;;3.47;2.70;;;13.50;99.90;;;;;;5035674;28;20441;-50
2022/06/02 00:46:07;;;;;;;4.90;3.47;;;13.50;99.90;;;;;;5035283;28;20476;-46
2022/06/02 00:48:46;;;;;;;3.43;3.00;;;13.50;99.90;;;;;;5035680;28;20467;-47
2022/06/02 00:51:18;;;;;;;3.90;2.87;;;13.50;99.90;;;;;;5035946;28;20464;-46
2022/06/02 00:59:51;;;;;;;2.93;2.30;;;13.50;99.90;;;;;;5035248;28;20504;-40
2022/06/02 01:02:18;;;;;;;2.70;2.50;;;13.60;99.90;;;;;;5035745;28;20433;-36
2022/06/02 01:04:45;;;;;;;2.60;2.40;;;13.60;99.90;;;;;;5035097;28;20480;-47
2022/06/02 01:07:23;;;;;;;2.60;2.40;;;13.60;99.90;;;;;;5035485;28;20437;-50
2022/06/02 01:10:11;;;;;;;2.60;2.40;;;13.50;99.90;;;;;;5034848;28;20449;-48
2022/06/02 01:12:59;;;;;;;2.70;2.43;;;13.50;99.90;;;;;;5034847;28;20473;-42
2022/06/02 01:15:43;;;;;;;3.20;2.50;;;13.40;99.90;;;;;;5031379;28;21048;-51
2022/06/02 01:18:19;;;;;;;2.40;2.20;;;13.40;99.90;;;;;;5034527;28;20501;-40
2022/06/02 01:20:57;;;;;;;2.40;2.20;;;13.40;99.90;;;;;;5034560;28;20472;-42
2022/06/02 01:24:09;;;;;;;2.40;2.20;;;13.40;99.90;;;;;;5034939;28;20461;-41
2022/06/02 01:26:56;;;;;;;2.50;1.83;;;13.40;99.90;;;;;;5029018;28;20485;-46
2022/06/02 01:29:56;;;;;;;3.33;3.03;;;13.30;99.90;;;;;;5034465;28;20425;-50
2022/06/02 01:32:31;;;;;;;3.20;2.87;;;13.30;99.90;;;;;;5032401;28;20445;-41
2022/06/02 01:35:10;;;;;;;3.27;2.77;;;13.30;99.90;;;;;;5021185;28;20491;-46
2022/06/02 01:37:44;;;;;;;3.13;2.80;;;13.20;99.90;;;;;;5034459;28;20453;-44
2022/06/02 01:40:22;;;;;;;4.03;3.50;;;13.10;99.90;;;;;;5034538;28;20474;-41
2022/06/02 01:42:56;;;;;;;3.20;2.90;;;13.10;99.90;;;;;;5034998;28;20500;-47
2022/06/02 01:45:43;;;;;;;3.27;2.97;;;13.00;99.90;;;;;;5035201;28;20469;-42
2022/06/02 01:48:21;;;;;;;3.10;2.80;;;13.00;99.90;;;;;;5034984;28;20483;-52
2022/06/02 01:50:58;;;;;;;3.80;3.50;;;13.00;99.90;;;;;;5034740;28;20480;-60
2022/06/02 01:53:39;;;;;;;2.80;2.60;;;12.90;99.90;;;;;;5034546;28;20862;-46
2022/06/02 01:56:26;;;;;;;4.00;3.60;;;12.80;99.90;;;;;;5034661;28;20429;-47
2022/06/02 01:59:08;;;;;;;4.30;3.50;;;12.80;99.90;;;;;;5034266;28;20909;-47
2022/06/02 02:01:45;;;;;;;4.30;3.13;;;12.70;99.90;;;;;;5034557;28;20515;-39
2022/06/02 02:04:36;;;;;;;2.90;2.47;;;12.60;99.90;;;;;;5034292;28;20820;-47
2022/06/02 02:07:12;;;;;;;4.03;3.00;;;12.60;99.90;;;;;;5034035;28;20475;-49
2022/06/02 02:09:52;;;;;;;4.10;3.70;;;12.50;99.90;;;;;;5033886;28;20489;-47
2022/06/02 02:12:33;;;;;;;3.00;2.37;;;12.50;99.90;;;;;;5024720;28;20567;-47
2022/06/02 02:15:15;;;;;;;2.90;2.60;;;12.50;99.90;;;;;;5033774;28;20437;-46
2022/06/02 02:17:55;;;;;;;3.30;3.00;;;12.40;99.90;;;;;;5026581;28;20410;-44
2022/06/02 02:20:29;;;;;;;2.83;2.57;;;12.30;99.90;;;;;;5033741;28;20472;-41
2022/06/02 02:23:04;;;;;;;5.50;3.10;;;12.30;99.90;;;;;;5033952;28;20480;-46
2022/06/02 02:25:39;;;;;;;3.20;2.90;;;12.30;99.90;;;;;;5033813;28;20516;-47
2022/06/02 02:28:14;;;;;;;3.50;3.13;;;12.30;99.90;;;;;;5033893;28;20460;-46
2022/06/02 02:31:01;;;;;;;3.03;2.77;;;12.30;99.90;;;;;;5033742;28;20464;-40
2022/06/02 02:33:38;;;;;;;3.10;2.80;;;12.30;99.90;;;;;;5034374;28;20428;-45
2022/06/02 02:36:13;;;;;;;3.90;3.20;;;12.30;99.90;;;;;;5033551;28;20448;-44
2022/06/02 02:38:48;;;;;;;3.37;2.80;;;12.30;99.90;;;;;;5034348;28;20882;-45
2022/06/02 02:41:20;;;;;;;3.63;2.67;;;12.30;99.90;;;;;;5033951;28;20946;-42
2022/06/02 02:43:55;;;;;;;7.30;3.43;;;12.20;99.90;;;;;;5033263;28;20464;-45
2022/06/02 02:46:33;;;;;;;4.57;3.67;;;12.10;99.90;;;;;;5034186;28;20503;-47
2022/06/02 02:49:07;;;;;;;3.60;3.00;;;12.00;99.90;;;;;;5033303;28;20465;-47
2022/06/02 02:51:50;;;;;;;5.30;2.40;;;12.00;99.90;;;;;;5033704;28;20432;-38
2022/06/02 02:54:25;;;;;;;4.07;2.87;;;12.00;99.90;;;;;;5033449;28;20410;-41
2022/06/02 02:56:59;;;;;;;3.07;2.77;;;11.90;99.90;;;;;;5028741;28;20432;-51
2022/06/02 02:59:36;;;;;;;3.00;2.60;;;11.90;99.90;;;;;;5033372;28;20452;-47
2022/06/02 03:02:13;;;;;;;2.83;2.53;;;11.90;99.90;;;;;;5034036;28;20519;-45
2022/06/02 03:04:51;;;;;;;2.63;2.33;;;11.90;99.90;;;;;;5037339;28;20440;-47
2022/06/02 03:07:20;;;;;;;3.13;2.47;;;11.80;99.90;;;;;;5037230;28;20513;-40
2022/06/02 03:09:58;;;;;;;2.70;2.50;;;11.80;99.90;;;;;;5037232;28;20452;-43
2022/06/02 03:12:40;;;;;;;2.73;2.43;;;11.80;99.90;;;;;;5036942;28;20443;-45
2022/06/02 03:15:20;;;;;;;3.23;2.40;;;11.80;99.90;;;;;;5036803;28;20436;-51
2022/06/02 03:18:08;;;;;;;2.70;2.50;;;11.80;99.90;;;;;;5030955;28;20461;-46
2022/06/02 03:20:47;;;;;;;2.80;2.60;;;11.90;99.90;;;;;;5037089;28;20479;-45
2022/06/02 03:23:52;;;;;;;2.53;2.33;;;11.90;99.90;;;;;;5037329;28;20448;-45
2022/06/02 03:26:24;;;;;;;3.23;2.30;;;11.90;99.90;;;;;;5028889;28;20511;-46
2022/06/02 03:29:04;;;;;;;3.47;2.57;;;11.90;99.90;;;;;;5036750;28;20421;-41
2022/06/02 03:31:39;;;;;;;3.13;2.50;;;11.90;99.90;;;;;;5037009;28;20465;-47
2022/06/02 03:34:19;;;;;;;2.83;2.37;;;11.90;99.90;;;;;;5036785;28;20464;-44
2022/06/02 03:37:05;;;;;;;3.60;2.40;;;11.90;99.90;;;;;;5036172;28;20464;-42
2022/06/02 03:39:48;;;;;;;3.60;3.03;;;12.00;99.90;;;;;;5036148;28;20449;-41
2022/06/02 03:42:28;;;;;;;3.73;3.10;;;12.00;99.90;;;;;;5036035;28;20447;-43
2022/06/02 03:45:12;;;;;;;3.90;3.00;;;12.00;99.90;;;;;;5036633;28;20473;-39
2022/06/02 03:48:02;;;;;;;4.33;2.93;;;12.00;99.90;;;;;;5036609;28;20421;-48
2022/06/02 03:50:56;;;;;;;3.43;2.60;;;12.00;99.90;;;;;;5036121;28;20493;-49
2022/06/02 03:53:51;;;;;;;3.00;2.70;;;11.90;99.90;;;;;;5036420;28;20426;-45
2022/06/02 03:56:40;;;;;;;2.80;2.33;;;11.90;99.90;;;;;;5036685;28;20454;-47
2022/06/02 03:59:21;;;;;;;3.77;2.90;;;12.00;99.90;;;;;;5036563;28;20477;-39
2022/06/02 04:01:54;;;;;;;2.87;2.60;;;12.00;99.90;;;;;;5035761;28;20473;-47
2022/06/02 04:04:34;;;;;;;3.40;2.67;;;12.00;99.90;;;;;;5031194;28;20433;-42
2022/06/02 04:07:27;;;;;;;3.10;2.67;;;12.10;99.90;;;;;;5035795;28;20469;-43
2022/06/02 04:10:03;;;;;;;3.53;2.30;;;12.10;99.90;;;;;;5035548;28;20445;-44
2022/06/02 04:16:05;;;;;;;3.97;2.80;;;12.20;99.90;;;;;;5035385;28;21172;-48
2022/06/02 04:18:45;;;;;;;2.47;2.17;;;12.20;99.90;;;;;;5021702;28;20441;-37
2022/06/02 04:21:17;;;;;;;3.07;2.30;;;12.30;99.90;;;;;;5030793;28;20523;-47
2022/06/02 04:23:58;;;;;;;3.87;3.47;;;12.30;99.90;;;;;;5035400;28;20441;-45
2022/06/02 04:26:40;;;;;;;4.30;2.83;;;12.30;99.90;;;;;;5035415;28;20555;-43
2022/06/02 04:29:20;;;;;;;2.70;2.33;;;12.40;99.90;;;;;;5035325;28;20496;-36
2022/06/02 04:31:56;;;;;;;3.23;2.87;;;12.40;99.90;;;;;;5035605;28;20433;-38
2022/06/02 04:34:33;;;;;;;2.63;2.30;;;12.40;99.90;;;;;;5036279;28;20456;-41
2022/06/02 04:37:10;;;;;;;4.70;3.00;;;12.50;99.90;;;;;;5035956;28;20532;-52
2022/06/02 04:39:48;;;;;;;5.53;2.70;;;12.50;99.90;;;;;;5035616;28;20469;-44
2022/06/02 04:42:24;;;;;;;4.90;2.90;;;12.40;99.90;;;;;;5035291;28;20424;-47
2022/06/02 04:45:04;;;;;;;3.57;2.70;;;12.40;99.90;;;;;;5035225;28;20476;-44
2022/06/02 04:47:42;;;;;;;4.10;3.70;;;12.40;99.90;;;;;;5035217;28;20482;-49
2022/06/02 04:50:15;;;;;;;5.90;4.20;;;12.40;99.90;;;;;;5035186;28;20484;-42
2022/06/02 04:52:53;;;;;;;3.97;3.20;;;12.40;99.90;;;;;;5035275;28;20425;-41
2022/06/02 04:55:28;;;;;;;4.33;3.80;;;12.40;99.90;;;;;;5035046;28;20441;-54
2022/06/02 04:58:03;;;;;;;6.13;3.47;;;12.40;99.90;;;;;;5034690;28;20528;-49
2022/06/02 05:00:40;;;;;;;4.53;3.50;;;12.50;99.90;;;;;;5035239;28;20438;-48
2022/06/02 05:03:14;;;;;;;8.23;4.90;;;12.60;99.90;;;;;;5035365;28;20953;-46
2022/06/02 05:05:49;;;;;;;5.93;4.17;;;12.60;99.90;;;;;;5035450;28;20560;-48
2022/06/02 05:08:40;;;;;;;6.60;4.50;;;12.70;99.90;;;;;;5035371;28;20516;-46
2022/06/02 05:11:33;;;;;;;6.07;5.00;;;12.70;99.90;;;;;;5035328;28;20425;-42
2022/06/02 05:14:15;;;;;;;9.03;4.53;;;12.80;99.90;;;;;;5034321;28;20493;-47
2022/06/02 05:16:55;;;;;;;7.80;4.67;;;12.80;99.90;;;;;;5035011;28;20417;-50
2022/06/02 05:19:39;;;;;;;5.93;5.30;;;12.90;99.90;;;;;;5034993;28;20481;-43
2022/06/02 05:22:42;;;;;;;6.90;5.03;;;12.80;99.90;;;;;;5034871;28;20461;-43
2022/06/02 05:25:51;;;;;;;7.40;4.37;;;12.90;99.90;;;;;;5034811;28;20495;-48
2022/06/02 05:28:58;;;;;;;8.57;5.30;;;13.00;99.90;;;;;;5035077;28;20429;-48
2022/06/02 05:31:50;;;;;;;7.50;5.77;;;13.00;99.90;;;;;;5034404;28;20489;-48
2022/06/02 05:34:46;;;;;;;8.07;5.13;;;13.10;99.90;;;;;;5034893;28;20536;-45
2022/06/02 05:37:24;;;;;;;8.70;4.80;;;13.20;99.90;;;;;;5034358;28;20469;-47
2022/06/02 05:40:12;;;;;;;6.20;5.10;;;13.30;99.90;;;;;;5034738;28;20488;-50
2022/06/02 05:42:48;;;;;;;7.20;4.73;;;13.40;99.90;;;;;;5034720;28;20515;-40
2022/06/02 05:45:45;;;;;;;7.60;5.20;;;13.40;99.90;;;;;;5034448;28;20433;-45
2022/06/02 05:48:38;;;;;;;9.50;5.30;;;13.40;99.90;;;;;;5031797;28;20488;-41
2022/06/02 05:51:14;;;;;;;7.97;5.43;;;13.50;99.90;;;;;;5033975;28;20452;-43
2022/06/02 05:53:53;;;;;;;8.10;6.33;;;13.50;99.90;;;;;;5034417;28;20461;-44
2022/06/02 05:56:34;;;;;;;7.40;6.03;;;13.50;99.90;;;;;;5034918;28;20426;-45
2022/06/02 05:59:37;;;;;;;6.93;5.97;;;13.40;99.90;;;;;;5034168;28;20503;-47
2022/06/02 06:02:25;;;;;;;8.70;6.57;;;13.50;99.90;;;;;;5024992;28;20509;-46
2022/06/02 06:05:12;;;;;;;6.50;5.40;;;13.70;99.90;;;;;;5034574;28;20460;-46
2022/06/02 06:08:05;;;;;;;8.60;5.83;;;13.70;99.90;;;;;;5034866;28;20518;-45
2022/06/02 06:10:40;;;;;;;8.90;6.30;;;13.80;99.90;;;;;;5034318;28;20469;-48
2022/06/02 06:13:35;;;;;;;10.00;7.10;;;13.70;99.90;;;;;;5034753;28;20433;-45
2022/06/02 06:16:08;;;;;;;8.27;6.53;;;13.70;99.90;;;;;;5034647;28;20461;-45
2022/06/02 06:18:48;;;;;;;9.03;6.60;;;13.70;99.90;;;;;;5034465;28;20441;-44
2022/06/02 06:21:30;;;;;;;9.03;6.80;;;13.70;99.90;;;;;;5034815;28;20473;-44
2022/06/02 06:24:20;;;;;;;9.47;6.87;;;13.80;99.90;;;;;;5034295;28;20460;-48
2022/06/02 06:26:57;;;;;;;9.23;7.13;;;13.80;99.90;;;;;;5034037;28;20496;-49
2022/06/02 06:29:45;;;;;;;8.13;7.20;;;13.90;99.90;;;;;;5034404;28;20425;-45
2022/06/02 06:32:20;;;;;;;8.47;6.93;;;13.90;99.90;;;;;;5033611;28;20504;-49
2022/06/02 06:34:57;;;;;;;11.43;7.00;;;13.80;99.90;;;;;;5030378;28;20453;-48
2022/06/02 06:37:47;;;;;;;9.03;7.20;;;13.90;99.90;;;;;;5030339;28;20464;-49
2022/06/02 06:40:32;;;;;;;8.57;7.00;;;14.00;99.90;;;;;;5038145;28;20456;-47
2022/06/02 06:43:09;;;;;;;7.90;7.10;;;14.10;99.90;;;;;;5038315;28;20849;-43
2022/06/02 06:45:43;;;;;;;9.07;6.57;;;14.10;99.90;;;;;;5038063;28;20460;-50
2022/06/02 06:48:19;;;;;;;10.50;7.40;;;14.10;99.90;;;;;;5036600;28;20508;-45
2022/06/02 06:50:54;;;;;;;8.17;5.90;;;14.00;99.90;;;;;;5037371;28;20433;-47
2022/06/02 06:53:39;;;;;;;10.00;7.63;;;14.00;99.90;;;;;;5035440;28;20555;-47
2022/06/02 06:56:18;;;;;;;7.80;6.57;;;14.20;99.90;;;;;;5036763;28;20433;-47
2022/06/02 06:58:59;;;;;;;11.40;7.80;;;14.30;99.90;;;;;;5029872;28;20453;-53
2022/06/02 07:01:36;;;;;;;11.97;7.87;;;14.50;99.90;;;;;;5037806;28;20507;-45
2022/06/02 07:04:18;;;;;;;8.30;6.43;;;14.60;99.90;;;;;;5038362;28;20476;-47
2022/06/02 07:06:51;;;;;;;8.43;6.47;;;14.60;99.90;;;;;;5037544;28;20511;-44
2022/06/02 07:09:30;;;;;;;8.10;7.20;;;14.80;99.90;;;;;;5038221;28;20465;-44
2022/06/02 07:15:02;;;;;;;6.77;6.03;;;15.00;99.90;;;;;;5037646;28;20451;-46
2022/06/02 07:17:44;;;;;;;7.10;5.67;;;15.30;99.90;;;;;;5037801;28;20413;-41
2022/06/02 07:20:17;;;;;;;6.77;5.17;;;15.90;99.90;;;;;;5037406;28;20472;-48
2022/06/02 07:22:53;;;;;;;8.00;6.20;;;17.00;99.90;;;;;;5037194;28;20436;-42
2022/06/02 07:25:28;;;;;;;5.13;4.63;;;18.20;99.90;;;;;;5037375;28;20472;-44
2022/06/02 07:28:03;;;;;;;8.20;5.73;;;18.80;99.90;;;;;;5036522;28;20563;-41
2022/06/02 07:30:50;;;;;;;10.10;6.03;;;19.80;99.90;;;;;;5033755;28;20510;-39
2022/06/02 07:33:26;;;;;;;9.07;5.23;;;20.80;99.90;;;;;;5017270;28;20450;-43
2022/06/02 07:36:19;;;;;;;6.93;5.73;;;21.50;99.90;;;;;;5016897;28;20453;-43
2022/06/02 07:39:08;;;;;;;6.70;5.30;;;21.70;99.90;;;;;;5034444;28;20433;-41
2022/06/02 07:41:52;;;;;;;5.60;4.93;;;21.30;99.90;;;;;;5037570;28;20429;-40
2022/06/02 07:44:48;;;;;;;6.60;4.20;;;22.00;99.90;;;;;;5036000;28;20448;-47
2022/06/02 07:47:42;;;;;;;4.53;4.13;;;22.70;99.90;;;;;;5030790;28;20984;-45
2022/06/02 07:50:15;;;;;;;5.23;3.87;;;23.70;98.00;;;;;;5031094;28;20449;-46
2022/06/02 07:52:53;;;;;;;5.10;4.60;;;24.00;94.30;;;;;;5033628;28;20461;-45
2022/06/02 07:55:30;;;;;;;5.80;4.23;;;24.00;94.00;;;;;;5037382;28;20421;-48
2022/06/02 07:58:08;;;;;;;4.50;3.73;;;24.00;93.10;;;;;;5037299;28;20433;-39
2022/06/02 08:00:45;;;;;;;4.53;4.10;;;24.00;91.60;;;;;;5036454;28;20444;-39
2022/06/02 08:03:26;;;;;;;4.40;4.00;;;23.60;91.30;;;;;;5034999;28;20456;-48
2022/06/02 08:06:02;;;;;;;3.83;2.77;;;23.10;91.50;;;;;;5036615;28;20413;-41
2022/06/02 08:08:35;;;;;;;4.07;3.30;;;22.80;92.20;;;;;;5036217;28;20448;-44
2022/06/02 08:11:19;;;;;;;4.03;3.03;;;22.50;92.80;;;;;;5036366;28;20438;-46
2022/06/02 08:13:55;;;;;;;7.63;3.97;;;21.90;93.70;;;;;;5036680;28;20444;-46
2022/06/02 08:16:27;;;;;;;7.57;3.47;;;21.10;94.40;;;;;;5036563;28;20489;-44
2022/06/02 08:19:11;;;;;;;4.90;3.27;;;20.20;95.70;;;;;;5036240;28;20434;-46
2022/06/02 08:21:42;;;;;;;4.43;3.77;;;19.60;98.80;;;;;;5036079;28;20496;-45
2022/06/02 08:24:36;;;;;;;3.67;3.00;;;19.50;98.40;;;;;;5035491;28;20422;-46
2022/06/02 08:27:24;;;;;;;5.27;3.53;;;19.70;99.70;;;;;;5036241;28;20488;-48
2022/06/02 08:30:05;;;;;;;2.77;2.40;;;20.70;98.80;;;;;;5036309;28;20418;-49
2022/06/02 08:32:51;;;;;;;4.20;2.90;;;21.90;96.10;;;;;;5036430;28;20499;-40
2022/06/02 08:35:24;;;;;;;3.43;3.13;;;22.90;92.60;;;;;;5036809;28;20468;-44
2022/06/02 08:38:04;;;;;;;5.50;4.27;;;24.00;91.30;;;;;;5036394;28;20488;-45
2022/06/02 08:41:28;;;;;;;4.30;3.23;;;24.20;87.10;;;;;;5036277;28;20425;-39
2022/06/02 08:44:24;;;;;;;3.07;2.77;;;24.50;85.80;;;;;;5035978;28;20447;-40
2022/06/02 08:47:21;;;;;;;4.37;3.80;;;24.50;85.50;;;;;;5036231;28;20509;-48
2022/06/02 08:50:11;;;;;;;3.30;3.00;;;24.00;83.60;;;;;;5035823;28;20469;-45
2022/06/02 08:53:22;;;;;;;3.30;3.00;;;23.20;84.30;;;;;;5036321;28;20472;-42
2022/06/02 08:56:20;;;;;;;3.03;2.80;;;22.40;87.40;;;;;;5035184;28;20473;-44
2022/06/02 08:59:19;;;;;;;3.77;3.37;;;21.50;90.10;;;;;;5035792;28;20491;-48
2022/06/02 09:02:04;;;;;;;3.53;2.37;;;21.30;90.40;;;;;;5034598;28;20499;-45
2022/06/02 09:04:57;;;;;;;4.07;2.83;;;22.30;90.00;;;;;;5035407;28;20433;-45
2022/06/02 09:08:02;;;;;;;3.00;2.70;;;23.40;84.50;;;;;;5035836;28;20481;-46
2022/06/02 09:10:49;;;;;;;2.47;2.27;;;24.30;80.20;;;;;;5036258;28;20508;-43
2022/06/02 09:14:01;;;;;;;5.43;2.57;;;25.20;76.10;;;;;;5035823;28;20871;-42
2022/06/02 09:16:36;;;;;;;2.20;1.90;;;25.10;71.90;;;;;;5025872;28;20803;-47
2022/06/02 09:19:29;;;;;;;2.20;2.00;;;24.20;71.70;;;;;;5035298;28;20519;-44
2022/06/02 09:22:30;;;;;;;3.00;1.93;;;24.30;71.60;;;;;;5035787;28;20965;-43
2022/06/02 09:25:07;;;;;;;2.60;2.40;;;24.80;70.10;;;;;;5035098;28;20496;-44
2022/06/02 09:28:01;;;;;;;2.70;2.30;;;24.70;68.50;;;;;;5035146;28;20465;-45
2022/06/02 09:30:39;;;;;;;1.73;1.63;;;24.20;68.30;;;;;;5034913;28;20476;-43
2022/06/02 09:33:37;;;;;;;4.70;2.50;;;23.10;73.00;;;;;;5035606;28;20448;-46
2022/06/02 09:36:26;;;;;;;4.20;2.50;;;23.70;74.30;;;;;;5035294;28;20437;-46
2022/06/02 09:39:12;;;;;;;3.70;2.13;;;24.20;72.40;;;;;;5035355;28;20472;-46
2022/06/02 09:41:59;;;;;;;2.47;1.90;;;24.70;70.30;;;;;;5035562;28;20487;-40
2022/06/02 09:44:28;;;;;;;2.70;1.77;;;25.20;67.30;;;;;;5034930;28;20447;-44
2022/06/02 09:47:30;;;;;;;1.67;1.57;;;25.80;64.40;;;;;;5035256;28;20457;-44
2022/06/02 09:50:26;;;;;;;2.30;2.00;;;25.90;64.60;;;;;;5035235;28;20463;-47
2022/06/02 09:53:15;;;;;;;2.37;2.17;;;26.00;64.30;;;;;;5035224;28;20448;-42
2022/06/02 09:56:05;;;;;;;2.17;2.00;;;25.90;63.30;;;;;;5035520;28;20416;-46
2022/06/02 09:58:55;;;;;;;2.20;2.00;;;25.90;65.30;;;;;;5035367;28;20426;-50
2022/06/02 10:01:36;;;;;;;2.37;1.50;;;25.10;64.10;;;;;;5035677;28;20429;-42
2022/06/02 10:04:37;;;;;;;3.40;1.63;;;24.80;67.10;;;;;;5034921;28;20470;-46
2022/06/02 10:07:39;;;;;;;2.27;1.60;;;24.00;65.30;;;;;;5034309;28;20495;-41
2022/06/02 10:10:45;;;;;;;3.00;1.87;;;23.80;67.90;;;;;;5034236;28;20428;-36
2022/06/02 10:13:54;;;;;;;2.00;1.80;;;23.70;66.30;;;;;;5033749;28;20412;-43
2022/06/02 10:16:52;;;;;;;2.33;2.00;;;24.20;67.00;;;;;;5020033;28;20450;-39
2022/06/02 10:19:35;;;;;;;2.13;1.60;;;24.50;67.40;;;;;;5015184;28;20428;-46
2022/06/02 10:22:11;;;;;;;2.20;1.27;;;24.60;65.90;;;;;;5015020;28;20430;-50
2022/06/02 10:25:21;;;;;;;2.07;1.43;;;24.60;63.10;;;;;;5014247;28;20516;-47
2022/06/02 10:28:14;;;;;;;1.80;1.47;;;24.50;62.80;;;;;;5009123;28;20553;-45
2022/06/02 10:31:23;;;;;;;1.70;1.60;;;24.50;64.20;;;;;;5015001;28;20414;-50
2022/06/02 10:34:25;;;;;;;1.50;1.40;;;24.40;62.80;;;;;;5014715;28;20430;-44
2022/06/02 10:37:32;;;;;;;5.00;1.83;;;24.00;65.30;;;;;;5014896;28;20445;-42
2022/06/02 10:40:17;;;;;;;2.13;1.60;;;24.10;67.00;;;;;;4991083;28;20498;-41
2022/06/02 10:43:19;;;;;;;3.43;1.90;;;23.90;64.50;;;;;;5015333;28;20435;-45
2022/06/02 10:46:22;;;;;;;1.77;1.67;;;23.70;65.60;;;;;;5014304;28;20429;-42
2022/06/02 10:49:07;;;;;;;2.80;1.63;;;23.20;63.30;;;;;;5014349;28;20481;-47
2022/06/02 10:52:07;;;;;;;2.77;1.90;;;22.70;64.40;;;;;;5014470;28;20461;-45
2022/06/02 10:55:19;;;;;;;2.60;1.80;;;22.10;66.80;;;;;;5008348;28;20449;-45
2022/06/02 10:58:35;;;;;;;2.10;1.80;;;21.80;68.60;;;;;;5014167;28;20449;-41
2022/06/02 11:01:30;;;;;;;3.60;1.80;;;21.60;67.90;;;;;;4935531;29;20425;-49
2022/06/02 11:04:47;;;;;;;1.60;1.30;;;22.10;66.80;;;;;;5013816;28;20469;-44
2022/06/02 11:07:57;;;;;;;2.13;1.57;;;22.10;64.50;;;;;;5013979;28;20437;-45
2022/06/02 11:10:30;;;;;;;3.50;1.83;;;22.40;65.20;;;;;;5014498;28;20465;-43
2022/06/02 11:13:26;;;;;;;1.70;1.53;;;22.50;65.00;;;;;;5014432;28;20422;-41
2022/06/02 11:16:25;;;;;;;2.53;1.50;;;22.50;63.20;;;;;;5013747;28;20461;-43
2022/06/02 11:19:15;;;;;;;1.97;1.73;;;22.40;63.50;;;;;;4989640;28;20489;-42
2022/06/02 11:22:12;;;;;;;4.17;1.60;;;22.40;62.80;;;;;;5014218;28;20480;-41
2022/06/02 11:25:12;;;;;;;2.07;1.60;;;22.20;64.10;;;;;;5025169;28;20476;-47
2022/06/02 11:28:15;;;;;;;4.03;2.93;;;22.30;63.10;;;;;;5037445;28;20495;-42
2022/06/02 11:31:10;;;;;;;9.37;2.07;;;22.50;63.50;;;;;;5024880;28;20467;-50
2022/06/02 11:34:13;;;;;;;2.30;2.10;;;22.30;62.40;;;;;;5037302;28;20465;-39
2022/06/02 11:37:09;;;;;;;2.27;1.63;;;22.20;61.80;;;;;;4976660;29;20459;-47
2022/06/02 11:40:03;;;;;;;3.30;2.10;;;22.20;62.60;;;;;;5031660;28;20583;-36
2022/06/02 11:42:47;;;;;;;2.63;2.43;;;22.20;60.70;;;;;;5021055;28;20429;-46
2022/06/02 11:45:28;;;;;;;6.70;2.63;;;22.10;61.80;;;;;;5037054;28;20572;-43
2022/06/02 11:48:14;;;;;;;1.77;1.67;;;22.00;62.30;;;;;;5022560;28;20466;-45
2022/06/02 11:51:00;;;;;;;4.27;1.53;;;22.10;63.10;;;;;;5022532;28;20457;-43
2022/06/02 11:53:53;;;;;;;2.50;1.40;;;22.10;61.90;;;;;;5026048;28;20415;-45
2022/06/02 11:56:38;;;;;;;2.20;1.50;;;21.80;62.40;;;;;;5017415;28;20462;-49
2022/06/02 11:59:35;;;;;;;2.63;1.60;;;21.50;62.40;;;;;;5017327;28;20462;-52
2022/06/02 12:02:37;;;;;;;3.73;1.77;;;21.50;64.80;;;;;;5023727;28;20457;-41
2022/06/02 12:05:25;;;;;;;1.87;1.10;;;21.20;62.60;;;;;;5036851;28;20451;-44
2022/06/02 12:08:27;;;;;;;1.50;1.40;;;21.00;61.50;;;;;;5036775;28;20798;-41
2022/06/02 12:11:22;;;;;;;2.70;1.40;;;20.70;60.90;;;;;;5036973;28;20421;-41
2022/06/02 12:14:06;;;;;;;1.88;1.20;;;20.30;60.60;;;;;;5035864;28;20438;-46
2022/06/02 12:16:46;;;;;;;1.50;1.30;;;20.10;60.30;;;;;;5036593;28;20217;-46
2022/06/02 12:19:27;;;;;;;1.50;1.27;;;20.20;60.40;;;;;;5036623;28;20465;-47
2022/06/02 12:22:08;;;;;;;3.97;1.60;;;20.30;60.30;;;;;;5036512;28;20476;-45
2022/06/02 12:24:52;;;;;;;3.43;1.60;;;20.20;61.20;;;;;;5036492;28;20452;-38
2022/06/02 12:27:38;;;;;;;1.50;1.17;;;20.40;62.00;;;;;;5036575;28;20437;-46
2022/06/02 12:30:19;;;;;;;4.00;1.40;;;20.60;60.90;;;;;;5019880;28;20458;-42
2022/06/02 12:33:27;;;;;;;1.60;1.27;;;20.60;62.60;;;;;;5036471;28;20429;-44
2022/06/02 12:36:09;;;;;;;1.20;1.10;;;20.70;61.00;;;;;;5011523;28;20461;-44
2022/06/02 12:39:11;;;;;;;1.63;1.30;;;20.50;59.90;;;;;;5036141;28;20508;-38
2022/06/02 12:42:11;;;;;;;1.60;1.27;;;20.50;59.70;;;;;;5031253;28;20507;-40
2022/06/02 12:45:02;;;;;;;2.60;1.30;;;20.40;60.80;;;;;;5036022;28;20417;-41
2022/06/02 12:48:01;;;;;;;1.57;1.33;;;20.50;62.00;;;;;;5036533;28;20476;-45
2022/06/02 12:50:42;;;;;;;2.03;1.83;;;20.70;61.60;;;;;;5036577;28;20433;-44
2022/06/02 12:53:42;;;;;;;1.50;1.40;;;20.70;61.00;;;;;;5035803;28;20434;-39
2022/06/02 12:56:42;;;;;;;2.30;1.20;;;20.70;63.30;;;;;;5036709;28;20441;-49
2022/06/02 12:59:36;;;;;;;2.07;1.87;;;21.00;63.20;;;;;;5035668;28;20421;-52
2022/06/02 13:02:07;;;;;;;1.33;1.23;;;21.20;60.60;;;;;;5036165;28;20437;-45
2022/06/02 13:05:24;;;;;;;1.20;1.10;;;21.30;60.10;;;;;;5035392;28;20422;-49
2022/06/02 13:08:30;;;;;;;1.23;1.07;;;21.40;59.70;;;;;;5036214;28;20535;-46
2022/06/02 13:11:13;;;;;;;1.50;1.40;;;21.40;58.60;;;;;;5034140;28;20468;-43
2022/06/02 13:14:13;;;;;;;2.07;1.67;;;21.10;58.90;;;;;;5035818;28;20429;-43
2022/06/02 13:16:58;;;;;;;1.43;1.30;;;21.10;59.10;;;;;;5036535;28;20481;-46
2022/06/02 13:20:14;;;;;;;4.40;2.40;;;21.20;58.40;;;;;;5036469;28;20520;-47
2022/06/02 13:23:15;;;;;;;1.80;1.07;;;21.30;59.10;;;;;;5035923;28;20475;-53
2022/06/02 13:26:07;;;;;;;3.40;1.77;;;21.50;59.10;;;;;;5035993;28;20456;-50
2022/06/02 13:29:10;;;;;;;1.67;1.57;;;21.30;58.60;;;;;;5035806;28;20485;-47
2022/06/02 13:31:58;;;;;;;2.80;1.57;;;21.20;59.10;;;;;;5036311;28;20492;-44
2022/06/02 13:35:01;;;;;;;2.77;1.40;;;21.20;58.70;;;;;;5035618;28;20480;-45
2022/06/02 13:38:02;;;;;;;2.33;1.70;;;21.10;59.40;;;;;;5018657;28;20462;-49
2022/06/02 13:40:42;;;;;;;4.83;1.57;;;21.00;59.60;;;;;;5022525;28;20494;-42
2022/06/02 13:43:43;;;;;;;2.07;1.87;;;21.00;59.60;;;;;;5035412;28;20422;-45
2022/06/02 13:46:51;;;;;;;1.60;1.30;;;21.10;60.00;;;;;;5024786;28;20523;-41
2022/06/02 13:50:03;;;;;;;2.40;1.30;;;21.20;58.70;;;;;;5021741;28;20500;-41
2022/06/02 13:53:13;;;;;;;5.07;1.50;;;21.20;58.30;;;;;;5015239;28;20497;-45
2022/06/02 13:59:19;;;;;;;2.50;1.47;;;21.30;58.20;;;;;;5015054;28;21011;-45
2022/06/02 14:02:03;;;;;;;1.93;1.60;;;21.20;58.50;;;;;;5015528;28;20430;-44
2022/06/02 14:04:54;;;;;;;2.17;1.10;;;21.00;60.20;;;;;;5015741;28;20457;-38
2022/06/02 14:08:00;;;;;;;2.03;1.60;;;20.90;60.40;;;;;;5022518;28;20425;-48
2022/06/02 14:10:58;;;;;;;1.83;1.70;;;20.70;59.90;;;;;;5000115;28;20508;-48
2022/06/02 14:13:55;;;;;;;2.07;1.40;;;20.90;60.90;;;;;;5033610;28;20432;-44
2022/06/02 14:16:34;;;;;;;1.30;1.03;;;21.20;60.90;;;;;;5033940;28;20471;-49
2022/06/02 14:19:32;;;;;;;2.20;2.00;;;21.30;60.80;;;;;;5032872;28;20406;-41
2022/06/02 14:22:11;;;;;;;1.80;1.57;;;21.20;60.60;;;;;;5014225;28;20469;-41
2022/06/02 14:24:46;;;;;;;1.40;1.20;;;20.80;61.30;;;;;;5015231;28;20461;-46
2022/06/02 14:27:27;;;;;;;2.20;2.00;;;20.70;62.50;;;;;;5015511;28;20491;-43
2022/06/02 14:30:04;;;;;;;3.30;2.87;;;20.60;63.70;;;;;;5013575;28;20545;-40
2022/06/02 14:32:50;;;;;;;2.27;1.67;;;20.50;62.00;;;;;;5023734;28;20469;-46
2022/06/02 14:35:44;;;;;;;1.50;1.40;;;20.20;62.50;;;;;;5034583;28;20413;-50
2022/06/02 14:38:24;;;;;;;2.23;1.67;;;20.10;63.60;;;;;;5034596;28;20539;-51